sensor_id;sensor_type;location;lat;lon;timestamp;temperature;humidity
75457;SHT31;64036;48.266;14.192;2023-07-29T00:02:07;19.21;73.59
75457;SHT31;64036;48.266;14.192;2023-07-29T00:04:33;19.20;73.69
75457;SHT31;64036;48.266;14.192;2023-07-29T00:06:59;19.17;73.79
75457;SHT31;64036;48.266;14.192;2023-07-29T00:09:24;19.16;73.92
75457;SHT31;64036;48.266;14.192;2023-07-29T00:11:50;19.17;73.96
75457;SHT31;64036;48.266;14.192;2023-07-29T00:14:15;19.18;73.90
75457;SHT31;64036;48.266;14.192;2023-07-29T00:16:41;19.20;73.94
75457;SHT31;64036;48.266;14.192;2023-07-29T00:19:07;19.20;73.90
75457;SHT31;64036;48.266;14.192;2023-07-29T00:21:33;19.20;73.90
75457;SHT31;64036;48.266;14.192;2023-07-29T00:23:59;19.20;73.85
75457;SHT31;64036;48.266;14.192;2023-07-29T00:26:26;19.19;73.98
75457;SHT31;64036;48.266;14.192;2023-07-29T00:28:56;19.18;74.05
75457;SHT31;64036;48.266;14.192;2023-07-29T00:31:22;19.16;74.08
75457;SHT31;64036;48.266;14.192;2023-07-29T00:33:48;19.14;74.27
75457;SHT31;64036;48.266;14.192;2023-07-29T00:36:14;19.08;74.37
75457;SHT31;64036;48.266;14.192;2023-07-29T00:38:39;19.07;74.74
75457;SHT31;64036;48.266;14.192;2023-07-29T00:41:07;19.04;74.82
75457;SHT31;64036;48.266;14.192;2023-07-29T00:43:33;19.08;74.80
75457;SHT31;64036;48.266;14.192;2023-07-29T00:45:59;19.12;74.60
75457;SHT31;64036;48.266;14.192;2023-07-29T00:48:25;19.08;74.51
75457;SHT31;64036;48.266;14.192;2023-07-29T00:50:51;19.02;74.71
75457;SHT31;64036;48.266;14.192;2023-07-29T00:53:18;19.00;74.80
75457;SHT31;64036;48.266;14.192;2023-07-29T00:55:43;19.01;74.83
75457;SHT31;64036;48.266;14.192;2023-07-29T00:58:10;19.04;75.16
75457;SHT31;64036;48.266;14.192;2023-07-29T01:00:36;19.10;75.03
75457;SHT31;64036;48.266;14.192;2023-07-29T01:03:02;19.10;74.97
75457;SHT31;64036;48.266;14.192;2023-07-29T01:05:30;19.07;75.04
75457;SHT31;64036;48.266;14.192;2023-07-29T01:13:58;19.07;75.06
75457;SHT31;64036;48.266;14.192;2023-07-29T01:16:55;19.09;75.01
75457;SHT31;64036;48.266;14.192;2023-07-29T01:19:39;19.09;75.03
75457;SHT31;64036;48.266;14.192;2023-07-29T01:22:35;19.10;75.00
75457;SHT31;64036;48.266;14.192;2023-07-29T01:25:03;19.12;75.00
75457;SHT31;64036;48.266;14.192;2023-07-29T01:27:29;19.10;75.14
75457;SHT31;64036;48.266;14.192;2023-07-29T01:29:56;19.07;75.36
75457;SHT31;64036;48.266;14.192;2023-07-29T01:32:32;19.05;75.54
75457;SHT31;64036;48.266;14.192;2023-07-29T01:37:47;19.02;75.60
75457;SHT31;64036;48.266;14.192;2023-07-29T01:40:19;19.06;75.54
75457;SHT31;64036;48.266;14.192;2023-07-29T01:42:49;19.08;75.49
75457;SHT31;64036;48.266;14.192;2023-07-29T01:45:14;19.08;75.56
75457;SHT31;64036;48.266;14.192;2023-07-29T01:47:40;19.03;75.85
75457;SHT31;64036;48.266;14.192;2023-07-29T01:50:07;19.03;75.93
75457;SHT31;64036;48.266;14.192;2023-07-29T01:52:34;18.98;76.13
75457;SHT31;64036;48.266;14.192;2023-07-29T01:54:59;18.96;76.15
75457;SHT31;64036;48.266;14.192;2023-07-29T01:57:25;18.97;76.07
75457;SHT31;64036;48.266;14.192;2023-07-29T01:59:50;18.98;76.00
75457;SHT31;64036;48.266;14.192;2023-07-29T02:02:16;18.95;76.05
75457;SHT31;64036;48.266;14.192;2023-07-29T02:04:41;18.88;76.14
75457;SHT31;64036;48.266;14.192;2023-07-29T02:07:07;18.80;76.24
75457;SHT31;64036;48.266;14.192;2023-07-29T02:09:33;18.72;76.31
75457;SHT31;64036;48.266;14.192;2023-07-29T02:11:58;18.61;76.41
75457;SHT31;64036;48.266;14.192;2023-07-29T02:14:24;18.57;76.40
75457;SHT31;64036;48.266;14.192;2023-07-29T02:16:49;18.50;76.42
75457;SHT31;64036;48.266;14.192;2023-07-29T02:19:15;18.44;76.41
75457;SHT31;64036;48.266;14.192;2023-07-29T02:21:41;18.38;76.40
75457;SHT31;64036;48.266;14.192;2023-07-29T02:24:07;18.33;76.40
75457;SHT31;64036;48.266;14.192;2023-07-29T02:26:32;18.29;76.36
75457;SHT31;64036;48.266;14.192;2023-07-29T02:28:58;18.25;76.31
75457;SHT31;64036;48.266;14.192;2023-07-29T02:31:24;18.22;76.30
75457;SHT31;64036;48.266;14.192;2023-07-29T02:33:51;18.17;76.35
75457;SHT31;64036;48.266;14.192;2023-07-29T02:36:17;18.13;76.52
75457;SHT31;64036;48.266;14.192;2023-07-29T02:38:43;18.11;76.63
75457;SHT31;64036;48.266;14.192;2023-07-29T02:41:09;18.09;76.69
75457;SHT31;64036;48.266;14.192;2023-07-29T02:43:37;18.10;76.67
75457;SHT31;64036;48.266;14.192;2023-07-29T02:46:03;18.11;76.56
75457;SHT31;64036;48.266;14.192;2023-07-29T02:48:29;18.12;76.50
75457;SHT31;64036;48.266;14.192;2023-07-29T02:50:55;18.11;76.48
75457;SHT31;64036;48.266;14.192;2023-07-29T02:53:21;18.09;76.47
75457;SHT31;64036;48.266;14.192;2023-07-29T02:55:48;18.09;76.48
75457;SHT31;64036;48.266;14.192;2023-07-29T02:58:14;18.08;76.43
75457;SHT31;64036;48.266;14.192;2023-07-29T03:00:39;18.07;76.39
75457;SHT31;64036;48.266;14.192;2023-07-29T03:03:08;18.05;76.40
75457;SHT31;64036;48.266;14.192;2023-07-29T03:05:34;18.03;76.39
75457;SHT31;64036;48.266;14.192;2023-07-29T03:08:01;18.01;76.38
75457;SHT31;64036;48.266;14.192;2023-07-29T03:10:26;18.00;76.41
75457;SHT31;64036;48.266;14.192;2023-07-29T03:12:55;17.97;76.41
75457;SHT31;64036;48.266;14.192;2023-07-29T03:15:24;17.94;76.37
75457;SHT31;64036;48.266;14.192;2023-07-29T03:17:51;17.90;76.41
75457;SHT31;64036;48.266;14.192;2023-07-29T03:20:17;17.84;76.59
75457;SHT31;64036;48.266;14.192;2023-07-29T03:22:44;17.77;76.95
75457;SHT31;64036;48.266;14.192;2023-07-29T03:25:11;17.72;77.10
75457;SHT31;64036;48.266;14.192;2023-07-29T03:27:36;17.71;76.99
75457;SHT31;64036;48.266;14.192;2023-07-29T03:30:03;17.69;76.99
75457;SHT31;64036;48.266;14.192;2023-07-29T03:32:29;17.69;77.09
75457;SHT31;64036;48.266;14.192;2023-07-29T03:34:55;17.66;77.20
75457;SHT31;64036;48.266;14.192;2023-07-29T03:37:20;17.65;77.12
75457;SHT31;64036;48.266;14.192;2023-07-29T03:39:46;17.65;77.04
75457;SHT31;64036;48.266;14.192;2023-07-29T03:42:12;17.62;77.18
75457;SHT31;64036;48.266;14.192;2023-07-29T03:44:38;17.60;77.29
75457;SHT31;64036;48.266;14.192;2023-07-29T03:47:06;17.59;77.30
75457;SHT31;64036;48.266;14.192;2023-07-29T03:49:33;17.58;77.25
75457;SHT31;64036;48.266;14.192;2023-07-29T03:51:58;17.56;77.22
75457;SHT31;64036;48.266;14.192;2023-07-29T03:54:24;17.55;77.43
75457;SHT31;64036;48.266;14.192;2023-07-29T03:56:49;17.54;77.60
75457;SHT31;64036;48.266;14.192;2023-07-29T03:59:15;17.57;77.65
75457;SHT31;64036;48.266;14.192;2023-07-29T04:01:42;17.59;77.72
75457;SHT31;64036;48.266;14.192;2023-07-29T04:04:08;17.72;77.73
75457;SHT31;64036;48.266;14.192;2023-07-29T04:06:33;18.18;77.33
75457;SHT31;64036;48.266;14.192;2023-07-29T04:08:59;18.33;76.99
75457;SHT31;64036;48.266;14.192;2023-07-29T04:11:24;18.35;76.93
75457;SHT31;64036;48.266;14.192;2023-07-29T04:13:51;18.47;76.77
75457;SHT31;64036;48.266;14.192;2023-07-29T04:16:16;18.55;76.64
75457;SHT31;64036;48.266;14.192;2023-07-29T04:18:42;18.55;76.56
75457;SHT31;64036;48.266;14.192;2023-07-29T04:21:08;18.56;76.64
75457;SHT31;64036;48.266;14.192;2023-07-29T04:23:33;18.55;76.80
75457;SHT31;64036;48.266;14.192;2023-07-29T04:26:00;18.55;76.91
75457;SHT31;64036;48.266;14.192;2023-07-29T04:28:26;18.55;76.98
75457;SHT31;64036;48.266;14.192;2023-07-29T04:30:51;18.53;77.06
75457;SHT31;64036;48.266;14.192;2023-07-29T04:33:17;18.55;77.04
75457;SHT31;64036;48.266;14.192;2023-07-29T04:35:42;18.59;77.10
75457;SHT31;64036;48.266;14.192;2023-07-29T04:38:08;18.66;77.11
75457;SHT31;64036;48.266;14.192;2023-07-29T04:40:34;18.77;77.00
75457;SHT31;64036;48.266;14.192;2023-07-29T04:43:02;18.88;76.98
75457;SHT31;64036;48.266;14.192;2023-07-29T04:45:28;18.98;76.84
75457;SHT31;64036;48.266;14.192;2023-07-29T04:47:55;19.08;76.77
75457;SHT31;64036;48.266;14.192;2023-07-29T04:50:21;19.16;76.67
75457;SHT31;64036;48.266;14.192;2023-07-29T04:52:47;19.20;76.60
75457;SHT31;64036;48.266;14.192;2023-07-29T04:55:12;19.28;76.58
75457;SHT31;64036;48.266;14.192;2023-07-29T04:57:38;19.36;76.48
75457;SHT31;64036;48.266;14.192;2023-07-29T05:00:03;19.45;76.38
75457;SHT31;64036;48.266;14.192;2023-07-29T05:02:30;19.51;76.11
75457;SHT31;64036;48.266;14.192;2023-07-29T05:04:55;19.78;75.74
75457;SHT31;64036;48.266;14.192;2023-07-29T05:07:21;19.88;75.41
75457;SHT31;64036;48.266;14.192;2023-07-29T05:09:47;19.92;75.27
75457;SHT31;64036;48.266;14.192;2023-07-29T05:12:13;20.02;75.12
75457;SHT31;64036;48.266;14.192;2023-07-29T05:14:39;20.06;75.00
75457;SHT31;64036;48.266;14.192;2023-07-29T05:17:05;20.30;74.66
75457;SHT31;64036;48.266;14.192;2023-07-29T05:19:31;21.10;73.82
75457;SHT31;64036;48.266;14.192;2023-07-29T05:21:56;22.06;72.63
75457;SHT31;64036;48.266;14.192;2023-07-29T05:24:22;23.10;70.87
75457;SHT31;64036;48.266;14.192;2023-07-29T05:26:49;24.05;68.98
75457;SHT31;64036;48.266;14.192;2023-07-29T05:29:14;24.93;67.13
75457;SHT31;64036;48.266;14.192;2023-07-29T05:31:40;25.76;65.09
75457;SHT31;64036;48.266;14.192;2023-07-29T05:34:06;26.52;63.15
75457;SHT31;64036;48.266;14.192;2023-07-29T05:36:32;27.23;61.61
75457;SHT31;64036;48.266;14.192;2023-07-29T05:38:59;27.95;59.70
75457;SHT31;64036;48.266;14.192;2023-07-29T05:41:25;28.62;57.90
75457;SHT31;64036;48.266;14.192;2023-07-29T05:43:53;29.46;56.52
75457;SHT31;64036;48.266;14.192;2023-07-29T05:46:18;30.17;54.61
75457;SHT31;64036;48.266;14.192;2023-07-29T05:48:44;30.82;53.04
75457;SHT31;64036;48.266;14.192;2023-07-29T05:51:09;31.20;50.43
75457;SHT31;64036;48.266;14.192;2023-07-29T05:53:35;31.53;49.90
75457;SHT31;64036;48.266;14.192;2023-07-29T05:56:00;32.01;48.97
75457;SHT31;64036;48.266;14.192;2023-07-29T05:58:26;32.58;47.93
75457;SHT31;64036;48.266;14.192;2023-07-29T06:00:52;33.04;46.31
75457;SHT31;64036;48.266;14.192;2023-07-29T06:03:17;33.32;45.84
75457;SHT31;64036;48.266;14.192;2023-07-29T06:05:43;33.91;45.30
75457;SHT31;64036;48.266;14.192;2023-07-29T06:08:08;34.58;44.11
75457;SHT31;64036;48.266;14.192;2023-07-29T06:10:34;35.23;43.02
75457;SHT31;64036;48.266;14.192;2023-07-29T06:13:00;35.82;41.75
75457;SHT31;64036;48.266;14.192;2023-07-29T06:15:25;36.30;40.83
75457;SHT31;64036;48.266;14.192;2023-07-29T06:17:51;36.85;39.97
75457;SHT31;64036;48.266;14.192;2023-07-29T06:20:17;37.35;39.51
75457;SHT31;64036;48.266;14.192;2023-07-29T06:22:42;37.89;38.42
75457;SHT31;64036;48.266;14.192;2023-07-29T06:25:08;38.41;37.40
75457;SHT31;64036;48.266;14.192;2023-07-29T06:27:34;38.77;36.66
75457;SHT31;64036;48.266;14.192;2023-07-29T06:29:59;39.01;35.76
75457;SHT31;64036;48.266;14.192;2023-07-29T06:32:26;39.37;35.13
75457;SHT31;64036;48.266;14.192;2023-07-29T06:34:51;39.90;34.82
75457;SHT31;64036;48.266;14.192;2023-07-29T06:37:19;40.43;34.11
75457;SHT31;64036;48.266;14.192;2023-07-29T06:39:45;40.86;33.56
75457;SHT31;64036;48.266;14.192;2023-07-29T06:42:11;41.32;32.82
75457;SHT31;64036;48.266;14.192;2023-07-29T06:44:36;41.70;32.07
75457;SHT31;64036;48.266;14.192;2023-07-29T06:47:02;41.88;31.69
75457;SHT31;64036;48.266;14.192;2023-07-29T06:49:28;42.14;31.35
75457;SHT31;64036;48.266;14.192;2023-07-29T06:51:53;42.31;30.42
75457;SHT31;64036;48.266;14.192;2023-07-29T06:54:19;42.34;30.03
75457;SHT31;64036;48.266;14.192;2023-07-29T06:56:50;42.20;30.19
75457;SHT31;64036;48.266;14.192;2023-07-29T06:59:16;41.75;30.78
75457;SHT31;64036;48.266;14.192;2023-07-29T07:01:42;41.71;30.75
75457;SHT31;64036;48.266;14.192;2023-07-29T07:04:08;41.54;30.80
75457;SHT31;64036;48.266;14.192;2023-07-29T07:06:33;40.93;31.32
75457;SHT31;64036;48.266;14.192;2023-07-29T07:08:59;40.54;31.39
75457;SHT31;64036;48.266;14.192;2023-07-29T07:11:24;40.49;31.27
75457;SHT31;64036;48.266;14.192;2023-07-29T07:13:50;40.74;31.37
75457;SHT31;64036;48.266;14.192;2023-07-29T07:16:15;41.26;30.89
75457;SHT31;64036;48.266;14.192;2023-07-29T07:18:41;41.63;30.39
75457;SHT31;64036;48.266;14.192;2023-07-29T07:21:06;41.74;30.18
75457;SHT31;64036;48.266;14.192;2023-07-29T07:23:32;42.24;29.83
75457;SHT31;64036;48.266;14.192;2023-07-29T07:25:58;42.93;29.63
75457;SHT31;64036;48.266;14.192;2023-07-29T07:28:23;43.21;28.96
75457;SHT31;64036;48.266;14.192;2023-07-29T07:30:49;43.10;29.24
75457;SHT31;64036;48.266;14.192;2023-07-29T07:33:14;43.17;29.44
75457;SHT31;64036;48.266;14.192;2023-07-29T07:35:40;43.54;29.50
75457;SHT31;64036;48.266;14.192;2023-07-29T07:38:07;43.63;28.44
75457;SHT31;64036;48.266;14.192;2023-07-29T07:40:35;43.50;28.47
75457;SHT31;64036;48.266;14.192;2023-07-29T07:43:01;43.58;28.52
75457;SHT31;64036;48.266;14.192;2023-07-29T07:45:27;43.87;29.24
75457;SHT31;64036;48.266;14.192;2023-07-29T07:47:53;44.04;29.72
75457;SHT31;64036;48.266;14.192;2023-07-29T07:50:19;44.36;29.33
75457;SHT31;64036;48.266;14.192;2023-07-29T07:52:45;44.47;27.75
75457;SHT31;64036;48.266;14.192;2023-07-29T07:55:11;43.70;28.24
75457;SHT31;64036;48.266;14.192;2023-07-29T07:57:36;42.95;28.71
75457;SHT31;64036;48.266;14.192;2023-07-29T08:00:02;41.80;29.45
75457;SHT31;64036;48.266;14.192;2023-07-29T08:02:29;40.71;30.67
75457;SHT31;64036;48.266;14.192;2023-07-29T08:04:55;39.87;31.14
75457;SHT31;64036;48.266;14.192;2023-07-29T08:07:21;39.03;32.55
75457;SHT31;64036;48.266;14.192;2023-07-29T08:09:46;38.12;33.53
75457;SHT31;64036;48.266;14.192;2023-07-29T08:12:12;37.42;34.19
75457;SHT31;64036;48.266;14.192;2023-07-29T08:14:38;36.80;34.83
75457;SHT31;64036;48.266;14.192;2023-07-29T08:17:03;36.37;35.72
75457;SHT31;64036;48.266;14.192;2023-07-29T08:19:29;35.99;35.99
75457;SHT31;64036;48.266;14.192;2023-07-29T08:21:55;35.65;37.34
75457;SHT31;64036;48.266;14.192;2023-07-29T08:24:21;35.58;38.30
75457;SHT31;64036;48.266;14.192;2023-07-29T08:26:47;35.61;38.57
75457;SHT31;64036;48.266;14.192;2023-07-29T08:29:12;35.81;39.06
75457;SHT31;64036;48.266;14.192;2023-07-29T08:31:38;36.86;38.12
75457;SHT31;64036;48.266;14.192;2023-07-29T08:34:04;38.08;36.82
75457;SHT31;64036;48.266;14.192;2023-07-29T08:36:29;39.01;35.01
75457;SHT31;64036;48.266;14.192;2023-07-29T08:38:55;39.71;34.37
75457;SHT31;64036;48.266;14.192;2023-07-29T08:44:30;40.98;32.05
75457;SHT31;64036;48.266;14.192;2023-07-29T08:47:02;41.21;31.78
75457;SHT31;64036;48.266;14.192;2023-07-29T08:49:28;41.44;31.24
75457;SHT31;64036;48.266;14.192;2023-07-29T08:51:55;41.47;30.67
75457;SHT31;64036;48.266;14.192;2023-07-29T08:54:23;41.39;31.12
75457;SHT31;64036;48.266;14.192;2023-07-29T08:56:49;41.38;30.79
75457;SHT31;64036;48.266;14.192;2023-07-29T08:59:15;41.43;30.88
75457;SHT31;64036;48.266;14.192;2023-07-29T09:01:44;41.26;31.13
75457;SHT31;64036;48.266;14.192;2023-07-29T09:04:10;41.20;31.38
75457;SHT31;64036;48.266;14.192;2023-07-29T09:06:36;41.42;31.24
75457;SHT31;64036;48.266;14.192;2023-07-29T09:09:04;41.62;30.70
75457;SHT31;64036;48.266;14.192;2023-07-29T09:11:30;41.51;32.62
75457;SHT31;64036;48.266;14.192;2023-07-29T09:13:57;41.35;32.71
75457;SHT31;64036;48.266;14.192;2023-07-29T09:16:23;41.35;32.56
75457;SHT31;64036;48.266;14.192;2023-07-29T09:18:50;40.98;31.81
75457;SHT31;64036;48.266;14.192;2023-07-29T09:21:17;40.61;32.02
75457;SHT31;64036;48.266;14.192;2023-07-29T09:23:50;40.40;33.42
75457;SHT31;64036;48.266;14.192;2023-07-29T09:26:25;40.45;33.18
75457;SHT31;64036;48.266;14.192;2023-07-29T09:28:53;40.35;33.45
75457;SHT31;64036;48.266;14.192;2023-07-29T09:31:21;40.18;33.14
75457;SHT31;64036;48.266;14.192;2023-07-29T09:33:49;39.90;34.02
75457;SHT31;64036;48.266;14.192;2023-07-29T09:36:22;39.76;34.61
75457;SHT31;64036;48.266;14.192;2023-07-29T09:38:47;39.67;33.82
75457;SHT31;64036;48.266;14.192;2023-07-29T09:41:13;39.38;34.52
75457;SHT31;64036;48.266;14.192;2023-07-29T09:43:40;39.36;34.20
75457;SHT31;64036;48.266;14.192;2023-07-29T09:46:06;38.79;34.60
75457;SHT31;64036;48.266;14.192;2023-07-29T09:48:32;38.05;34.86
75457;SHT31;64036;48.266;14.192;2023-07-29T09:51:12;37.10;35.67
75457;SHT31;64036;48.266;14.192;2023-07-29T09:53:40;36.19;36.74
75457;SHT31;64036;48.266;14.192;2023-07-29T09:56:12;35.19;37.68
75457;SHT31;64036;48.266;14.192;2023-07-29T09:58:38;34.27;38.81
75457;SHT31;64036;48.266;14.192;2023-07-29T10:01:08;33.38;40.25
75457;SHT31;64036;48.266;14.192;2023-07-29T10:03:34;32.47;42.83
75457;SHT31;64036;48.266;14.192;2023-07-29T10:06:02;31.78;45.37
75457;SHT31;64036;48.266;14.192;2023-07-29T10:08:29;31.35;46.94
75457;SHT31;64036;48.266;14.192;2023-07-29T10:11:04;30.80;48.26
75457;SHT31;64036;48.266;14.192;2023-07-29T10:13:32;30.43;49.37
75457;SHT31;64036;48.266;14.192;2023-07-29T10:15:59;30.11;50.24
75457;SHT31;64036;48.266;14.192;2023-07-29T10:18:28;29.86;51.50
75457;SHT31;64036;48.266;14.192;2023-07-29T10:20:56;29.61;52.03
75457;SHT31;64036;48.266;14.192;2023-07-29T10:23:27;29.36;52.56
75457;SHT31;64036;48.266;14.192;2023-07-29T10:26:04;29.17;53.34
75457;SHT31;64036;48.266;14.192;2023-07-29T10:28:32;29.00;53.85
75457;SHT31;64036;48.266;14.192;2023-07-29T10:30:59;28.84;54.51
75457;SHT31;64036;48.266;14.192;2023-07-29T10:33:25;28.69;54.92
75457;SHT31;64036;48.266;14.192;2023-07-29T10:35:52;28.60;54.89
75457;SHT31;64036;48.266;14.192;2023-07-29T10:38:20;28.60;55.05
75457;SHT31;64036;48.266;14.192;2023-07-29T10:40:51;28.58;55.34
75457;SHT31;64036;48.266;14.192;2023-07-29T10:43:34;28.52;55.56
75457;SHT31;64036;48.266;14.192;2023-07-29T10:46:19;28.40;55.51
75457;SHT31;64036;48.266;14.192;2023-07-29T10:51:25;28.38;56.07
75457;SHT31;64036;48.266;14.192;2023-07-29T10:54:11;28.38;56.17
75457;SHT31;64036;48.266;14.192;2023-07-29T10:56:43;28.43;55.71
75457;SHT31;64036;48.266;14.192;2023-07-29T11:01:42;28.47;56.03
75457;SHT31;64036;48.266;14.192;2023-07-29T11:04:26;28.43;55.85
75457;SHT31;64036;48.266;14.192;2023-07-29T11:09:41;28.59;55.63
75457;SHT31;64036;48.266;14.192;2023-07-29T11:15:29;28.66;55.75
75457;SHT31;64036;48.266;14.192;2023-07-29T11:17:59;28.73;55.22
75457;SHT31;64036;48.266;14.192;2023-07-29T11:20:30;28.88;55.26
75457;SHT31;64036;48.266;14.192;2023-07-29T11:22:58;29.26;55.31
75457;SHT31;64036;48.266;14.192;2023-07-29T11:25:28;29.79;54.55
75457;SHT31;64036;48.266;14.192;2023-07-29T11:27:56;30.02;53.21
75457;SHT31;64036;48.266;14.192;2023-07-29T11:30:25;29.95;52.71
75457;SHT31;64036;48.266;14.192;2023-07-29T11:32:54;29.89;52.63
75457;SHT31;64036;48.266;14.192;2023-07-29T11:35:21;29.89;52.89
75457;SHT31;64036;48.266;14.192;2023-07-29T11:37:47;29.97;52.37
75457;SHT31;64036;48.266;14.192;2023-07-29T11:40:19;30.14;52.72
75457;SHT31;64036;48.266;14.192;2023-07-29T11:42:47;30.49;52.42
75457;SHT31;64036;48.266;14.192;2023-07-29T11:45:18;30.80;50.87
75457;SHT31;64036;48.266;14.192;2023-07-29T11:47:45;31.29;51.33
75457;SHT31;64036;48.266;14.192;2023-07-29T11:50:12;31.68;50.82
75457;SHT31;64036;48.266;14.192;2023-07-29T11:52:39;31.64;49.84
75457;SHT31;64036;48.266;14.192;2023-07-29T11:55:08;31.41;50.73
75457;SHT31;64036;48.266;14.192;2023-07-29T11:57:35;31.21;50.42
75457;SHT31;64036;48.266;14.192;2023-07-29T12:00:03;31.58;49.63
75457;SHT31;64036;48.266;14.192;2023-07-29T12:02:39;32.11;49.13
75457;SHT31;64036;48.266;14.192;2023-07-29T12:05:07;32.33;46.69
75457;SHT31;64036;48.266;14.192;2023-07-29T12:07:35;32.55;45.95
75457;SHT31;64036;48.266;14.192;2023-07-29T12:10:01;32.62;45.95
75457;SHT31;64036;48.266;14.192;2023-07-29T12:12:28;32.71;45.53
75457;SHT31;64036;48.266;14.192;2023-07-29T12:14:54;32.74;45.22
75457;SHT31;64036;48.266;14.192;2023-07-29T12:17:20;32.58;45.07
75457;SHT31;64036;48.266;14.192;2023-07-29T12:19:46;32.51;45.88
75457;SHT31;64036;48.266;14.192;2023-07-29T12:22:11;32.58;46.70
75457;SHT31;64036;48.266;14.192;2023-07-29T12:24:38;32.68;47.11
75457;SHT31;64036;48.266;14.192;2023-07-29T12:27:05;32.98;46.10
75457;SHT31;64036;48.266;14.192;2023-07-29T12:29:39;33.02;46.06
75457;SHT31;64036;48.266;14.192;2023-07-29T12:32:07;33.13;45.07
75457;SHT31;64036;48.266;14.192;2023-07-29T12:34:32;33.15;44.79
75457;SHT31;64036;48.266;14.192;2023-07-29T12:36:58;33.19;44.80
75457;SHT31;64036;48.266;14.192;2023-07-29T12:39:34;32.99;43.79
75457;SHT31;64036;48.266;14.192;2023-07-29T12:42:06;32.71;44.59
75457;SHT31;64036;48.266;14.192;2023-07-29T12:44:32;32.39;45.25
75457;SHT31;64036;48.266;14.192;2023-07-29T12:47:00;32.00;45.71
75457;SHT31;64036;48.266;14.192;2023-07-29T12:49:28;31.88;45.12
75457;SHT31;64036;48.266;14.192;2023-07-29T12:51:57;31.71;46.02
75457;SHT31;64036;48.266;14.192;2023-07-29T12:54:24;31.56;46.10
75457;SHT31;64036;48.266;14.192;2023-07-29T12:56:49;31.33;46.40
75457;SHT31;64036;48.266;14.192;2023-07-29T12:59:15;31.21;46.44
75457;SHT31;64036;48.266;14.192;2023-07-29T13:01:41;31.06;46.71
75457;SHT31;64036;48.266;14.192;2023-07-29T13:04:06;31.05;46.45
75457;SHT31;64036;48.266;14.192;2023-07-29T13:06:32;30.99;46.24
75457;SHT31;64036;48.266;14.192;2023-07-29T13:08:58;30.82;47.37
75457;SHT31;64036;48.266;14.192;2023-07-29T13:11:23;30.67;47.33
75457;SHT31;64036;48.266;14.192;2023-07-29T13:13:49;30.58;47.53
75457;SHT31;64036;48.266;14.192;2023-07-29T13:16:15;30.37;47.50
75457;SHT31;64036;48.266;14.192;2023-07-29T13:18:40;30.16;47.73
75457;SHT31;64036;48.266;14.192;2023-07-29T13:21:08;29.92;48.17
75457;SHT31;64036;48.266;14.192;2023-07-29T13:23:34;29.67;48.56
75457;SHT31;64036;48.266;14.192;2023-07-29T13:25:59;29.47;48.91
75457;SHT31;64036;48.266;14.192;2023-07-29T13:28:26;29.30;49.93
75457;SHT31;64036;48.266;14.192;2023-07-29T13:30:51;29.10;50.58
75457;SHT31;64036;48.266;14.192;2023-07-29T13:33:17;28.88;51.41
75457;SHT31;64036;48.266;14.192;2023-07-29T13:35:42;28.68;52.20
75457;SHT31;64036;48.266;14.192;2023-07-29T13:38:08;28.52;52.79
75457;SHT31;64036;48.266;14.192;2023-07-29T13:40:34;28.32;53.35
75457;SHT31;64036;48.266;14.192;2023-07-29T13:43:00;28.07;53.99
75457;SHT31;64036;48.266;14.192;2023-07-29T13:45:25;27.80;54.68
75457;SHT31;64036;48.266;14.192;2023-07-29T13:47:51;27.56;55.66
75457;SHT31;64036;48.266;14.192;2023-07-29T13:50:17;27.29;57.17
75457;SHT31;64036;48.266;14.192;2023-07-29T13:52:43;26.62;57.68
75457;SHT31;64036;48.266;14.192;2023-07-29T13:55:09;25.82;58.39
75457;SHT31;64036;48.266;14.192;2023-07-29T13:57:36;25.34;59.24
75457;SHT31;64036;48.266;14.192;2023-07-29T14:00:05;25.02;60.24
75457;SHT31;64036;48.266;14.192;2023-07-29T14:02:31;24.86;61.09
75457;SHT31;64036;48.266;14.192;2023-07-29T14:04:57;24.78;62.12
75457;SHT31;64036;48.266;14.192;2023-07-29T14:07:22;24.76;62.72
75457;SHT31;64036;48.266;14.192;2023-07-29T14:09:48;24.75;64.22
75457;SHT31;64036;48.266;14.192;2023-07-29T14:12:14;24.59;64.92
75457;SHT31;64036;48.266;14.192;2023-07-29T14:14:41;24.57;64.29
75457;SHT31;64036;48.266;14.192;2023-07-29T14:17:07;24.60;63.37
75457;SHT31;64036;48.266;14.192;2023-07-29T14:19:36;24.68;63.25
75457;SHT31;64036;48.266;14.192;2023-07-29T14:22:02;24.77;63.27
75457;SHT31;64036;48.266;14.192;2023-07-29T14:24:28;24.92;62.84
75457;SHT31;64036;48.266;14.192;2023-07-29T14:26:54;25.05;62.58
75457;SHT31;64036;48.266;14.192;2023-07-29T14:29:20;25.06;62.92
75457;SHT31;64036;48.266;14.192;2023-07-29T14:31:45;25.07;62.92
75457;SHT31;64036;48.266;14.192;2023-07-29T14:34:11;25.24;62.73
75457;SHT31;64036;48.266;14.192;2023-07-29T14:36:36;25.38;62.87
75457;SHT31;64036;48.266;14.192;2023-07-29T14:39:02;25.37;62.81
75457;SHT31;64036;48.266;14.192;2023-07-29T14:41:28;25.26;62.72
75457;SHT31;64036;48.266;14.192;2023-07-29T14:43:55;25.25;62.83
75457;SHT31;64036;48.266;14.192;2023-07-29T14:46:21;25.27;62.66
75457;SHT31;64036;48.266;14.192;2023-07-29T14:48:46;25.23;63.27
75457;SHT31;64036;48.266;14.192;2023-07-29T14:51:12;25.08;63.52
75457;SHT31;64036;48.266;14.192;2023-07-29T14:53:38;24.99;63.70
75457;SHT31;64036;48.266;14.192;2023-07-29T14:56:04;24.91;64.02
75457;SHT31;64036;48.266;14.192;2023-07-29T14:58:30;24.82;64.23
75457;SHT31;64036;48.266;14.192;2023-07-29T15:00:56;24.80;64.69
75457;SHT31;64036;48.266;14.192;2023-07-29T15:03:23;24.74;64.65
75457;SHT31;64036;48.266;14.192;2023-07-29T15:05:49;24.75;64.79
75457;SHT31;64036;48.266;14.192;2023-07-29T15:08:15;24.71;64.86
75457;SHT31;64036;48.266;14.192;2023-07-29T15:10:45;24.72;65.07
75457;SHT31;64036;48.266;14.192;2023-07-29T15:13:14;24.69;65.26
75457;SHT31;64036;48.266;14.192;2023-07-29T15:15:43;24.60;65.48
75457;SHT31;64036;48.266;14.192;2023-07-29T15:18:09;24.57;65.74
75457;SHT31;64036;48.266;14.192;2023-07-29T15:20:35;24.53;65.62
75457;SHT31;64036;48.266;14.192;2023-07-29T15:23:01;24.50;65.40
75457;SHT31;64036;48.266;14.192;2023-07-29T15:25:27;24.48;65.24
75457;SHT31;64036;48.266;14.192;2023-07-29T15:27:52;24.46;65.43
75457;SHT31;64036;48.266;14.192;2023-07-29T15:30:18;24.45;65.58
75457;SHT31;64036;48.266;14.192;2023-07-29T15:32:44;24.43;65.70
75457;SHT31;64036;48.266;14.192;2023-07-29T15:35:10;24.42;65.83
75457;SHT31;64036;48.266;14.192;2023-07-29T15:37:36;24.38;66.47